Summitville, OH (43962)

8:03 PM EDT on October 22, 2014 (GMT -0400)
Guilford Lake State Park | Change Station
CLOSE
Current Station
Personal Weather Station
Location: Hanoverton, OH
Elevation: 1168 ft
Nearby Weather Stations

Elev 1168 ft 40.80 °N, 80.88 °W | Updated 54 seconds ago

Overcast
Overcast
45.8 °F
Feels Like 46 °F
N
0.0
Wind Variable Wind from SW
Gusts 0.0 mph

Today
High -- | Low -- °F
--% Chance of Precip.
Yesterday
High -- | Low -- °F
Precip. -- in
7:42 AM 6:33 PM
Waning Crescent, 1% visible
Pressure 30.19 in
Visibility 10.0 miles
Clouds Mostly Cloudy 1600 ft
Overcast 2700 ft
Windchill 46 °F
Dew Point 43 °F
Humidity 90%
Rainfall 0.00 in
Snow Depth Not available.
UV 0 out of 12
Pollen .60 out of 12
Air Quality Not available.
Flu Activity Sporadic
METAR KBVI 222347Z 34005KT 10SM BKN016 OVC027 08/05 A3019

More Conditions Fewer Conditions

Pressure 30.19 in
Visibility 10.0 miles
Clouds Mostly Cloudy 1600 ft
Overcast 2700 ft
Windchill 46 °F
Dew Point 43 °F
Humidity 90%
Rainfall 0.00 in
Snow Depth Not available.
UV 0 out of 12
Pollen .60 out of 12
Air Quality Not available.
Flu Activity Sporadic
METAR KBVI 222347Z 34005KT 10SM BKN016 OVC027 08/05 A3019

More Conditions Fewer Conditions

10-Day Weather Forecast

Almanac

Astronomy

Oct. 22, 2014 Rise Set
Actual Time 7:42 AM EDT 6:33 PM EDT
Civil Twilight 7:14 AM EDT 7:00 PM EDT
Nautical Twilight 6:42 AM EDT 7:32 PM EDT
Astronomical Twilight 6:10 AM EDT 8:04 PM EDT
Moon 6:21 AM EDT (10/22) 5:59 PM EDT (10/22)
Length of Visible Light 11h 46m
Length of Day
10h 50m
Tomorrow will be 2m 32s shorter.
Waning Crescent, 1% of the Moon is Illuminated
Today
Waning Crescent
Oct 23
New
Oct 30
First Quarter
Nov 6
Full
Nov 14
Last Quarter

Today's Extremes

State Highs State Lows

Community

WunderPhotos

Upload Photos

1,764,082 photos uploaded!

WunderBlogs® & News

Nearby

Snow Depth

Station Depth Elevation
No new snow has been reported.

Earthquake Activity

City Distance Mag. Time & Date
No recent earthquake activity has been reported nearby.
Minimum magnitude displayed is 2.5.

Coastal Water Temperatures

Place Temperature
No Stations Reporting

Nearby Weather Stations